createdAt,value
2018-10-09T00:02:56.869Z,10.72
2018-10-09T00:07:50.124Z,11.48
2018-10-09T00:12:43.395Z,9.75
2018-10-09T00:17:36.732Z,11.00
2018-10-09T00:22:30.060Z,11.50
2018-10-09T00:27:23.288Z,10.90
2018-10-09T00:32:16.539Z,10.88
2018-10-09T00:37:09.755Z,10.32
2018-10-09T00:42:03.042Z,12.55
2018-10-09T00:46:56.318Z,11.08
2018-10-09T00:51:50.542Z,12.70
2018-10-09T00:56:43.821Z,12.75
2018-10-09T01:01:37.053Z,12.85
2018-10-09T01:06:30.352Z,14.30
2018-10-09T01:11:23.592Z,12.13
2018-10-09T01:16:16.851Z,14.18
2018-10-09T01:21:10.088Z,11.53
2018-10-09T01:26:03.314Z,12.35
2018-10-09T01:30:56.562Z,15.38
2018-10-09T01:35:49.815Z,11.25
2018-10-09T01:40:43.027Z,13.10
2018-10-09T01:45:36.311Z,15.40
2018-10-09T01:50:29.547Z,15.68
2018-10-09T01:55:22.817Z,11.93
2018-10-09T02:00:16.149Z,13.28
2018-10-09T02:05:09.714Z,12.33
2018-10-09T02:10:03.002Z,13.18
2018-10-09T02:14:56.283Z,9.78
2018-10-09T02:19:49.534Z,14.70
2018-10-09T02:24:42.775Z,11.83
2018-10-09T02:29:36.032Z,11.70
2018-10-09T02:34:29.286Z,11.08
2018-10-09T02:39:22.501Z,10.58
2018-10-09T02:44:15.802Z,10.10
2018-10-09T02:49:09.016Z,9.63
2018-10-09T02:54:02.253Z,9.80
2018-10-09T02:58:55.513Z,10.75
2018-10-09T03:03:48.758Z,10.45
2018-10-09T03:08:42.165Z,9.95
2018-10-09T03:13:35.362Z,12.63
2018-10-09T03:18:28.553Z,12.43
2018-10-09T03:23:21.768Z,12.40
2018-10-09T03:28:15.016Z,10.20
2018-10-09T03:33:08.255Z,9.85
2018-10-09T03:38:01.544Z,9.65
2018-10-09T03:42:54.776Z,13.88
2018-10-09T03:47:48.075Z,8.80
2018-10-09T03:52:41.330Z,13.80
2018-10-09T03:57:34.584Z,9.15
2018-10-09T04:02:27.823Z,11.73
2018-10-09T04:07:21.134Z,10.13
2018-10-09T04:12:14.404Z,11.45
2018-10-09T04:17:07.665Z,12.55
2018-10-09T04:22:00.906Z,10.85
2018-10-09T04:26:54.171Z,12.13
2018-10-09T04:31:47.377Z,11.73
2018-10-09T04:36:40.601Z,11.95
2018-10-09T04:41:35.360Z,9.78
2018-10-09T04:46:28.714Z,11.80
2018-10-09T04:51:21.976Z,14.83
2018-10-09T04:56:15.610Z,13.28
2018-10-09T05:01:08.838Z,8.60
2018-10-09T05:06:08.798Z,9.73
2018-10-09T05:11:02.018Z,9.58
2018-10-09T05:15:55.256Z,9.45
2018-10-09T05:20:48.424Z,9.70
2018-10-09T05:25:41.676Z,12.20
2018-10-09T05:30:35.412Z,11.05
2018-10-09T05:35:28.670Z,14.63
2018-10-09T05:40:21.889Z,10.98
2018-10-09T05:45:15.122Z,13.00
2018-10-09T05:50:09.585Z,14.83
2018-10-09T05:55:03.167Z,12.00
2018-10-09T05:59:56.405Z,13.90
2018-10-09T06:04:49.660Z,13.18
2018-10-09T06:09:42.861Z,11.63
2018-10-09T06:14:36.118Z,15.85
2018-10-09T06:19:29.366Z,12.95
2018-10-09T06:24:22.629Z,12.58
2018-10-09T06:29:16.392Z,14.58
2018-10-09T06:34:09.754Z,15.80
2018-10-09T06:39:04.264Z,15.58
2018-10-09T06:43:57.588Z,11.40
2018-10-09T06:48:50.915Z,16.87
2018-10-09T06:53:44.274Z,12.83
2018-10-09T06:58:37.645Z,12.20
2018-10-09T07:03:30.872Z,14.87
2018-10-09T07:08:24.173Z,14.00
2018-10-09T07:13:17.429Z,13.93
2018-10-09T07:18:11.053Z,18.45
2018-10-09T07:23:04.312Z,14.18
2018-10-09T07:27:58.045Z,11.43
2018-10-09T07:32:51.687Z,15.10
2018-10-09T07:37:45.059Z,12.13
2018-10-09T07:42:39.421Z,12.65
2018-10-09T07:47:33.019Z,12.73
2018-10-09T07:52:26.684Z,15.53
2018-10-09T07:57:20.156Z,14.58
2018-10-09T08:02:13.677Z,12.45
2018-10-09T08:07:07.627Z,13.53
2018-10-09T08:12:00.886Z,12.15
2018-10-09T08:16:54.318Z,12.25
2018-10-09T08:21:47.663Z,14.40
2018-10-09T08:26:41.014Z,11.22
2018-10-09T08:31:34.323Z,17.98
2018-10-09T08:36:27.558Z,13.58
2018-10-09T08:41:20.824Z,13.83
2018-10-09T08:46:14.186Z,14.73
2018-10-09T08:51:07.410Z,14.23
2018-10-09T08:56:00.668Z,15.93
2018-10-09T09:00:53.926Z,18.37
2018-10-09T09:05:47.142Z,17.80
2018-10-09T09:10:40.389Z,19.20
2018-10-09T09:15:33.685Z,17.48
2018-10-09T09:20:27.373Z,16.37
2018-10-09T09:25:20.623Z,16.52
2018-10-09T09:30:14.831Z,15.40
2018-10-09T09:35:09.383Z,20.30
2018-10-09T09:40:02.762Z,19.40
2018-10-09T09:44:56.299Z,20.25
2018-10-09T09:49:49.636Z,17.67
2018-10-09T09:54:42.969Z,18.17
2018-10-09T09:59:36.331Z,20.20
2018-10-09T10:04:29.573Z,14.43
2018-10-09T10:09:23.242Z,16.48
2018-10-09T10:14:16.895Z,17.02
2018-10-09T10:19:11.667Z,17.82
2018-10-09T10:24:06.463Z,19.82
2018-10-09T10:29:00.012Z,16.57
2018-10-09T10:33:53.453Z,17.92
2018-10-09T10:38:48.418Z,17.05
2018-10-09T10:43:41.689Z,16.75
2018-10-09T10:48:35.095Z,16.80
2018-10-09T10:53:28.324Z,17.62
2018-10-09T10:58:21.577Z,17.70
2018-10-09T11:03:14.808Z,15.20
2018-10-09T11:08:08.095Z,16.70
2018-10-09T11:13:01.367Z,15.98
2018-10-09T11:17:56.356Z,15.28
2018-10-09T11:22:49.719Z,14.50
2018-10-09T11:27:43.144Z,14.70
2018-10-09T11:32:36.508Z,16.62
2018-10-09T11:37:29.819Z,14.58
2018-10-09T11:42:23.816Z,17.85
2018-10-09T11:47:17.177Z,19.57
2018-10-09T11:52:10.385Z,15.00
2018-10-09T11:57:03.670Z,15.30
2018-10-09T12:01:57.244Z,14.28
2018-10-09T12:06:50.535Z,14.58
2018-10-09T12:11:43.848Z,16.73
2018-10-09T12:16:37.133Z,14.58
2018-10-09T12:21:30.511Z,13.30
2018-10-09T12:26:23.887Z,16.82
2018-10-09T12:31:17.332Z,15.25
2018-10-09T12:36:10.836Z,13.62
2018-10-09T12:41:04.109Z,17.87
2018-10-09T12:45:57.380Z,13.93
2018-10-09T12:50:50.661Z,14.23
2018-10-09T12:55:43.963Z,12.18
2018-10-09T13:00:37.193Z,14.50
2018-10-09T13:05:30.808Z,14.25
2018-10-09T13:10:24.071Z,11.70
2018-10-09T13:15:17.569Z,13.15
2018-10-09T13:20:11.055Z,12.88
2018-10-09T13:25:04.523Z,13.25
2018-10-09T13:29:58.008Z,12.45
2018-10-09T13:34:51.356Z,15.95
2018-10-09T13:39:45.807Z,11.10
2018-10-09T13:44:39.065Z,10.80
2018-10-09T13:49:32.309Z,10.60
2018-10-09T13:54:25.897Z,14.30
2018-10-09T13:59:19.141Z,15.50
2018-10-09T14:04:12.965Z,12.07
2018-10-09T14:09:10.015Z,12.23
2018-10-09T14:14:03.345Z,11.50
2018-10-09T14:18:56.664Z,11.00
2018-10-09T14:23:49.902Z,12.13
2018-10-09T14:28:43.196Z,9.58
2018-10-09T14:33:36.420Z,9.05
2018-10-09T14:38:30.395Z,9.23
2018-10-09T14:43:23.627Z,8.58
2018-10-09T14:48:16.888Z,10.60
2018-10-09T14:53:10.526Z,11.33
2018-10-09T14:58:04.103Z,11.15
2018-10-09T15:02:58.362Z,9.55
2018-10-09T15:07:54.015Z,12.00
2018-10-09T15:12:49.486Z,9.18
2018-10-09T15:17:42.902Z,10.20
2018-10-09T15:22:37.190Z,13.80
2018-10-09T15:27:30.569Z,9.75
2018-10-09T15:32:23.877Z,7.75
2018-10-09T15:37:17.895Z,7.75
2018-10-09T15:42:12.247Z,8.40
2018-10-09T15:47:06.673Z,8.53
2018-10-09T15:51:59.918Z,8.68
2018-10-09T15:56:53.511Z,7.92
2018-10-09T16:01:46.731Z,8.13
2018-10-09T16:06:40.095Z,9.98
2018-10-09T16:11:33.353Z,8.45
2018-10-09T16:16:26.609Z,9.20
2018-10-09T16:21:19.889Z,9.50
2018-10-09T16:26:13.159Z,8.98
2018-10-09T16:31:06.593Z,9.95
2018-10-09T16:35:59.816Z,10.03
2018-10-09T16:40:53.318Z,9.78
2018-10-09T16:45:46.551Z,10.43
2018-10-09T16:50:39.909Z,10.55
2018-10-09T16:55:33.992Z,10.08
2018-10-09T17:00:27.406Z,11.10
2018-10-09T17:05:20.669Z,11.78
2018-10-09T17:10:13.916Z,12.95
2018-10-09T17:15:07.693Z,12.23
2018-10-09T17:20:01.126Z,13.72
2018-10-09T17:24:54.823Z,14.33
2018-10-09T17:29:48.744Z,12.33
2018-10-09T17:34:42.073Z,13.75
2018-10-09T17:39:37.632Z,13.78
2018-10-09T17:44:32.100Z,13.48
2018-10-09T17:49:26.258Z,14.25
2018-10-09T17:54:19.775Z,15.28
2018-10-09T17:59:14.179Z,16.32
2018-10-09T18:04:07.881Z,14.25
2018-10-09T18:09:01.091Z,15.10
2018-10-09T18:13:55.525Z,14.43
2018-10-09T18:18:49.123Z,13.58
2018-10-09T18:23:42.747Z,15.58
2018-10-09T18:28:36.036Z,18.42
2018-10-09T18:33:30.846Z,15.55
2018-10-09T18:38:24.050Z,16.05
2018-10-09T18:43:17.993Z,19.17
2018-10-09T18:48:11.271Z,17.27
2018-10-09T18:53:06.823Z,18.05
2018-10-09T18:58:00.132Z,15.65
2018-10-09T19:02:53.408Z,17.27
2018-10-09T19:07:47.430Z,17.95
2018-10-09T19:12:41.069Z,20.95
2018-10-09T19:17:34.706Z,21.73
2018-10-09T19:22:29.384Z,21.13
2018-10-09T19:27:24.975Z,19.55
2018-10-09T19:32:18.436Z,22.02
2018-10-09T19:37:14.370Z,18.87
2018-10-09T19:42:11.857Z,18.90
2018-10-09T19:47:06.030Z,22.20
2018-10-09T19:52:02.037Z,22.07
2018-10-09T19:56:56.551Z,23.55
2018-10-09T20:01:50.377Z,20.80
2018-10-09T20:06:46.447Z,20.43
2018-10-09T20:11:40.654Z,20.05
2018-10-09T20:16:35.061Z,19.42
2018-10-09T20:21:28.850Z,21.40
2018-10-09T20:26:22.405Z,20.95
2018-10-09T20:31:16.166Z,22.27
2018-10-09T20:36:10.012Z,20.32
2018-10-09T20:41:03.609Z,24.15
2018-10-09T20:45:57.091Z,22.90
2018-10-09T20:50:50.685Z,22.95
2018-10-09T20:55:45.408Z,20.97
2018-10-09T21:00:39.473Z,22.30
2018-10-09T21:05:33.139Z,22.13
2018-10-09T21:10:26.747Z,21.50
2018-10-09T21:15:20.352Z,22.65
2018-10-09T21:20:13.860Z,22.35
2018-10-09T21:25:07.369Z,24.47
2018-10-09T21:30:01.018Z,22.70
2018-10-09T21:34:54.527Z,24.32
2018-10-09T21:39:49.317Z,22.80
2018-10-09T21:44:42.617Z,21.35
2018-10-09T21:49:35.940Z,21.87
2018-10-09T21:54:29.138Z,22.05
2018-10-09T21:59:22.384Z,25.55
2018-10-09T22:04:15.610Z,23.25
2018-10-09T22:09:08.915Z,25.80
2018-10-09T22:14:02.133Z,24.27
2018-10-09T22:18:55.397Z,23.92
2018-10-09T22:23:48.630Z,24.85
2018-10-09T22:28:43.869Z,24.50
2018-10-09T22:33:37.148Z,23.65
2018-10-09T22:38:31.419Z,26.23
2018-10-09T22:43:25.643Z,23.77
2018-10-09T22:48:18.893Z,25.12
2018-10-09T22:53:12.167Z,22.40
2018-10-09T22:58:05.691Z,23.30
2018-10-09T23:02:58.947Z,24.60
2018-10-09T23:07:52.539Z,23.42
2018-10-09T23:12:46.068Z,25.50
2018-10-09T23:17:39.287Z,25.10
2018-10-09T23:22:32.533Z,23.90
2018-10-09T23:27:25.785Z,24.82
2018-10-09T23:32:19.066Z,28.87
2018-10-09T23:37:12.297Z,24.87
2018-10-09T23:42:05.510Z,26.60
2018-10-09T23:46:58.767Z,26.70
2018-10-09T23:51:52.014Z,25.37
2018-10-09T23:56:45.327Z,25.88
